sensor_id;sensor_type;location;lat;lon;timestamp;pressure;altitude;pressure_sealevel;temperature;humidity
48053;BME280;33824;51.600;5.718;2023-02-26T00:02:07;101668.69;;;0.92;75.84
48053;BME280;33824;51.600;5.718;2023-02-26T00:04:34;101677.34;;;0.94;75.86
48053;BME280;33824;51.600;5.718;2023-02-26T00:06:59;101676.50;;;0.94;76.18
48053;BME280;33824;51.600;5.718;2023-02-26T00:09:25;101669.28;;;0.98;76.40
48053;BME280;33824;51.600;5.718;2023-02-26T00:11:51;101681.28;;;1.02;76.06
48053;BME280;33824;51.600;5.718;2023-02-26T00:14:17;101679.41;;;1.04;76.37
48053;BME280;33824;51.600;5.718;2023-02-26T00:16:46;101680.81;;;1.09;76.72
48053;BME280;33824;51.600;5.718;2023-02-26T00:19:14;101684.97;;;1.13;76.49
48053;BME280;33824;51.600;5.718;2023-02-26T00:21:40;101686.53;;;1.16;77.05
48053;BME280;33824;51.600;5.718;2023-02-26T00:24:06;101697.31;;;1.11;77.08
48053;BME280;33824;51.600;5.718;2023-02-26T00:26:33;101678.94;;;1.11;77.08
48053;BME280;33824;51.600;5.718;2023-02-26T00:28:59;101685.03;;;1.12;77.48
48053;BME280;33824;51.600;5.718;2023-02-26T00:31:28;101691.41;;;1.08;77.44
48053;BME280;33824;51.600;5.718;2023-02-26T00:33:55;101693.97;;;1.09;77.86
48053;BME280;33824;51.600;5.718;2023-02-26T00:39:27;101700.69;;;0.99;77.52
48053;BME280;33824;51.600;5.718;2023-02-26T00:41:57;101698.25;;;0.96;77.77
48053;BME280;33824;51.600;5.718;2023-02-26T00:44:23;101709.53;;;0.98;77.80
48053;BME280;33824;51.600;5.718;2023-02-26T00:46:59;101710.44;;;0.97;78.19
48053;BME280;33824;51.600;5.718;2023-02-26T00:52:18;101713.44;;;0.91;78.32
48053;BME280;33824;51.600;5.718;2023-02-26T00:54:46;101725.72;;;0.90;78.27
48053;BME280;33824;51.600;5.718;2023-02-26T00:57:11;101725.22;;;0.84;78.70
48053;BME280;33824;51.600;5.718;2023-02-26T00:59:37;101723.63;;;0.81;78.90
48053;BME280;33824;51.600;5.718;2023-02-26T01:02:02;101728.22;;;0.78;78.67
48053;BME280;33824;51.600;5.718;2023-02-26T01:04:28;101724.94;;;0.74;79.29
48053;BME280;33824;51.600;5.718;2023-02-26T01:06:55;101728.84;;;0.67;79.29
48053;BME280;33824;51.600;5.718;2023-02-26T01:09:27;101735.03;;;0.66;79.42
48053;BME280;33824;51.600;5.718;2023-02-26T01:11:59;101730.88;;;0.62;79.62
48053;BME280;33824;51.600;5.718;2023-02-26T01:14:27;101725.38;;;0.67;79.85
48053;BME280;33824;51.600;5.718;2023-02-26T01:19:53;101725.50;;;0.49;80.02
48053;BME280;33824;51.600;5.718;2023-02-26T01:22:33;101724.69;;;0.49;80.30
48053;BME280;33824;51.600;5.718;2023-02-26T01:25:04;101726.19;;;0.53;80.58
48053;BME280;33824;51.600;5.718;2023-02-26T01:27:31;101732.09;;;0.57;79.59
48053;BME280;33824;51.600;5.718;2023-02-26T01:29:57;101731.34;;;0.55;79.98
48053;BME280;33824;51.600;5.718;2023-02-26T01:32:41;101732.81;;;0.44;79.53
48053;BME280;33824;51.600;5.718;2023-02-26T01:35:20;101733.66;;;0.45;79.55
48053;BME280;33824;51.600;5.718;2023-02-26T01:38:03;101734.66;;;0.42;79.76
48053;BME280;33824;51.600;5.718;2023-02-26T01:40:53;101743.75;;;0.37;80.30
48053;BME280;33824;51.600;5.718;2023-02-26T01:43:38;101742.41;;;0.30;80.01
48053;BME280;33824;51.600;5.718;2023-02-26T01:46:36;101753.13;;;0.25;80.80
48053;BME280;33824;51.600;5.718;2023-02-26T01:49:03;101751.00;;;0.32;80.25
48053;BME280;33824;51.600;5.718;2023-02-26T01:54:18;101757.34;;;0.28;80.89
48053;BME280;33824;51.600;5.718;2023-02-26T01:56:46;101753.88;;;0.27;80.73
48053;BME280;33824;51.600;5.718;2023-02-26T01:59:14;101761.19;;;0.22;82.06
48053;BME280;33824;51.600;5.718;2023-02-26T02:01:41;101762.72;;;0.26;81.73
48053;BME280;33824;51.600;5.718;2023-02-26T02:04:10;101775.16;;;0.23;81.68
48053;BME280;33824;51.600;5.718;2023-02-26T02:06:37;101767.28;;;0.23;81.78
48053;BME280;33824;51.600;5.718;2023-02-26T02:09:07;101775.41;;;0.18;82.59
48053;BME280;33824;51.600;5.718;2023-02-26T02:11:34;101779.69;;;0.19;82.25
48053;BME280;33824;51.600;5.718;2023-02-26T02:14:11;101780.97;;;0.12;82.89
48053;BME280;33824;51.600;5.718;2023-02-26T02:17:02;101778.69;;;0.06;82.93
48053;BME280;33824;51.600;5.718;2023-02-26T02:27:57;101795.44;;;-0.12;82.67
48053;BME280;33824;51.600;5.718;2023-02-26T02:33:11;101800.56;;;-0.11;83.07
48053;BME280;33824;51.600;5.718;2023-02-26T02:35:47;101800.50;;;-0.09;83.56
48053;BME280;33824;51.600;5.718;2023-02-26T02:38:20;101811.59;;;-0.04;82.74
48053;BME280;33824;51.600;5.718;2023-02-26T02:41:02;101809.03;;;-0.06;82.84
48053;BME280;33824;51.600;5.718;2023-02-26T02:43:32;101812.59;;;-0.07;83.14
48053;BME280;33824;51.600;5.718;2023-02-26T02:46:04;101811.84;;;-0.09;83.17
48053;BME280;33824;51.600;5.718;2023-02-26T02:49:33;101810.38;;;-0.14;82.40
48053;BME280;33824;51.600;5.718;2023-02-26T02:51:50;101822.63;;;-0.15;82.24
48053;BME280;33824;51.600;5.718;2023-02-26T02:54:22;101821.78;;;-0.15;82.22
48053;BME280;33824;51.600;5.718;2023-02-26T02:56:59;101826.97;;;-0.14;81.99
48053;BME280;33824;51.600;5.718;2023-02-26T02:59:36;101834.38;;;-0.22;82.02
48053;BME280;33824;51.600;5.718;2023-02-26T03:02:25;101835.75;;;-0.15;82.08
48053;BME280;33824;51.600;5.718;2023-02-26T03:04:53;101829.56;;;-0.14;82.21
48053;BME280;33824;51.600;5.718;2023-02-26T03:07:18;101831.44;;;-0.16;81.83
48053;BME280;33824;51.600;5.718;2023-02-26T03:09:44;101842.75;;;-0.15;81.47
48053;BME280;33824;51.600;5.718;2023-02-26T03:12:10;101837.28;;;-0.11;81.52
48053;BME280;33824;51.600;5.718;2023-02-26T03:14:38;101836.34;;;-0.10;81.17
48053;BME280;33824;51.600;5.718;2023-02-26T03:19:37;101841.94;;;-0.16;80.60
48053;BME280;33824;51.600;5.718;2023-02-26T03:22:12;101856.19;;;-0.21;81.04
48053;BME280;33824;51.600;5.718;2023-02-26T03:30:17;101861.38;;;-0.20;80.89
48053;BME280;33824;51.600;5.718;2023-02-26T03:33:02;101867.75;;;-0.25;80.88
48053;BME280;33824;51.600;5.718;2023-02-26T03:38:50;101872.72;;;-0.36;81.18
48053;BME280;33824;51.600;5.718;2023-02-26T03:41:29;101882.28;;;-0.35;81.13
48053;BME280;33824;51.600;5.718;2023-02-26T03:44:03;101883.88;;;-0.33;80.90
48053;BME280;33824;51.600;5.718;2023-02-26T03:46:36;101881.28;;;-0.33;81.03
48053;BME280;33824;51.600;5.718;2023-02-26T03:49:08;101879.50;;;-0.32;81.76
48053;BME280;33824;51.600;5.718;2023-02-26T03:51:36;101889.13;;;-0.33;81.50
48053;BME280;33824;51.600;5.718;2023-02-26T03:54:15;101888.50;;;-0.38;81.73
48053;BME280;33824;51.600;5.718;2023-02-26T03:56:45;101889.22;;;-0.34;81.59
48053;BME280;33824;51.600;5.718;2023-02-26T03:59:12;101889.91;;;-0.31;81.97
48053;BME280;33824;51.600;5.718;2023-02-26T04:01:43;101887.53;;;-0.35;81.54
48053;BME280;33824;51.600;5.718;2023-02-26T04:04:22;101892.25;;;-0.42;81.57
48053;BME280;33824;51.600;5.718;2023-02-26T04:06:50;101891.84;;;-0.34;81.43
48053;BME280;33824;51.600;5.718;2023-02-26T04:09:19;101892.66;;;-0.34;81.10
48053;BME280;33824;51.600;5.718;2023-02-26T04:11:45;101896.31;;;-0.36;81.75
48053;BME280;33824;51.600;5.718;2023-02-26T04:14:13;101909.47;;;-0.38;81.20
48053;BME280;33824;51.600;5.718;2023-02-26T04:16:38;101915.72;;;-0.40;81.73
48053;BME280;33824;51.600;5.718;2023-02-26T04:19:04;101907.88;;;-0.40;81.59
48053;BME280;33824;51.600;5.718;2023-02-26T04:21:30;101914.81;;;-0.39;81.82
48053;BME280;33824;51.600;5.718;2023-02-26T04:23:55;101915.72;;;-0.40;81.23
48053;BME280;33824;51.600;5.718;2023-02-26T04:26:21;101911.56;;;-0.44;81.15
48053;BME280;33824;51.600;5.718;2023-02-26T04:28:46;101921.28;;;-0.46;81.38
48053;BME280;33824;51.600;5.718;2023-02-26T04:31:12;101923.97;;;-0.48;81.05
48053;BME280;33824;51.600;5.718;2023-02-26T04:33:38;101936.31;;;-0.50;81.04
48053;BME280;33824;51.600;5.718;2023-02-26T04:36:03;101940.72;;;-0.51;81.18
48053;BME280;33824;51.600;5.718;2023-02-26T04:38:29;101935.53;;;-0.52;80.83
48053;BME280;33824;51.600;5.718;2023-02-26T04:40:55;101937.28;;;-0.53;81.17
48053;BME280;33824;51.600;5.718;2023-02-26T04:43:20;101945.16;;;-0.53;81.58
48053;BME280;33824;51.600;5.718;2023-02-26T04:45:47;101943.47;;;-0.54;81.04
48053;BME280;33824;51.600;5.718;2023-02-26T04:48:14;101942.78;;;-0.57;81.03
48053;BME280;33824;51.600;5.718;2023-02-26T04:50:40;101948.84;;;-0.57;81.04
48053;BME280;33824;51.600;5.718;2023-02-26T04:53:06;101950.94;;;-0.63;81.44
48053;BME280;33824;51.600;5.718;2023-02-26T04:55:33;101956.88;;;-0.60;80.70
48053;BME280;33824;51.600;5.718;2023-02-26T04:58:02;101963.81;;;-0.59;80.89
48053;BME280;33824;51.600;5.718;2023-02-26T05:00:27;101967.50;;;-0.63;81.27
48053;BME280;33824;51.600;5.718;2023-02-26T05:02:53;101967.56;;;-0.64;81.25
48053;BME280;33824;51.600;5.718;2023-02-26T05:05:19;101977.34;;;-0.68;80.76
48053;BME280;33824;51.600;5.718;2023-02-26T05:07:44;101973.97;;;-0.70;81.13
48053;BME280;33824;51.600;5.718;2023-02-26T05:10:10;101974.88;;;-0.71;80.88
48053;BME280;33824;51.600;5.718;2023-02-26T05:12:36;101976.66;;;-0.71;80.55
48053;BME280;33824;51.600;5.718;2023-02-26T05:15:04;101974.19;;;-0.74;80.72
48053;BME280;33824;51.600;5.718;2023-02-26T05:17:29;101977.81;;;-0.77;81.38
48053;BME280;33824;51.600;5.718;2023-02-26T05:19:55;101987.28;;;-0.74;81.16
48053;BME280;33824;51.600;5.718;2023-02-26T05:22:21;101984.81;;;-0.77;80.60
48053;BME280;33824;51.600;5.718;2023-02-26T05:24:46;101986.53;;;-0.76;80.67
48053;BME280;33824;51.600;5.718;2023-02-26T05:27:12;101987.34;;;-0.76;80.67
48053;BME280;33824;51.600;5.718;2023-02-26T05:29:38;101990.97;;;-0.78;80.05
48053;BME280;33824;51.600;5.718;2023-02-26T05:32:06;101994.66;;;-0.82;80.39
48053;BME280;33824;51.600;5.718;2023-02-26T05:34:32;102000.75;;;-0.82;79.59
48053;BME280;33824;51.600;5.718;2023-02-26T05:36:58;101994.81;;;-0.85;79.74
48053;BME280;33824;51.600;5.718;2023-02-26T05:39:23;102008.75;;;-0.85;79.68
48053;BME280;33824;51.600;5.718;2023-02-26T05:41:49;102006.56;;;-0.94;79.67
48053;BME280;33824;51.600;5.718;2023-02-26T05:44:16;101998.53;;;-0.91;80.23
48053;BME280;33824;51.600;5.718;2023-02-26T05:46:41;102004.72;;;-0.92;79.68
48053;BME280;33824;51.600;5.718;2023-02-26T05:49:07;102004.63;;;-0.90;79.84
48053;BME280;33824;51.600;5.718;2023-02-26T05:51:33;102009.13;;;-0.92;80.02
48053;BME280;33824;51.600;5.718;2023-02-26T05:53:58;102007.47;;;-0.95;79.68
48053;BME280;33824;51.600;5.718;2023-02-26T05:56:24;102019.72;;;-0.95;79.97
48053;BME280;33824;51.600;5.718;2023-02-26T05:58:49;102018.19;;;-1.00;79.10
48053;BME280;33824;51.600;5.718;2023-02-26T06:01:15;102025.09;;;-0.99;79.21
48053;BME280;33824;51.600;5.718;2023-02-26T06:03:40;102030.47;;;-1.02;79.60
48053;BME280;33824;51.600;5.718;2023-02-26T06:06:09;102022.06;;;-1.08;79.82
48053;BME280;33824;51.600;5.718;2023-02-26T06:08:35;102029.00;;;-1.07;79.21
48053;BME280;33824;51.600;5.718;2023-02-26T06:11:00;102046.31;;;-1.05;80.08
48053;BME280;33824;51.600;5.718;2023-02-26T06:13:26;102040.25;;;-1.05;79.87
48053;BME280;33824;51.600;5.718;2023-02-26T06:15:52;102043.75;;;-1.06;79.28
48053;BME280;33824;51.600;5.718;2023-02-26T06:18:18;102052.56;;;-1.07;79.93
48053;BME280;33824;51.600;5.718;2023-02-26T06:20:43;102054.47;;;-1.11;79.13
48053;BME280;33824;51.600;5.718;2023-02-26T06:23:09;102053.69;;;-1.13;79.82
48053;BME280;33824;51.600;5.718;2023-02-26T06:25:34;102060.63;;;-1.12;79.10
48053;BME280;33824;51.600;5.718;2023-02-26T06:28:00;102064.09;;;-1.11;79.99
48053;BME280;33824;51.600;5.718;2023-02-26T06:30:25;102069.31;;;-1.11;79.42
48053;BME280;33824;51.600;5.718;2023-02-26T06:32:51;102070.03;;;-1.08;79.36
48053;BME280;33824;51.600;5.718;2023-02-26T06:35:17;102073.63;;;-1.10;79.76
48053;BME280;33824;51.600;5.718;2023-02-26T06:37:43;102081.56;;;-1.12;79.07
48053;BME280;33824;51.600;5.718;2023-02-26T06:40:09;102083.97;;;-1.07;79.77
48053;BME280;33824;51.600;5.718;2023-02-26T06:42:35;102080.41;;;-1.06;79.34
48053;BME280;33824;51.600;5.718;2023-02-26T06:45:01;102096.91;;;-1.04;79.62
48053;BME280;33824;51.600;5.718;2023-02-26T06:47:27;102088.22;;;-1.05;78.93
48053;BME280;33824;51.600;5.718;2023-02-26T06:49:52;102100.03;;;-0.96;79.22
48053;BME280;33824;51.600;5.718;2023-02-26T06:52:18;102106.91;;;-0.93;78.78
48053;BME280;33824;51.600;5.718;2023-02-26T06:54:43;102112.06;;;-0.92;79.38
48053;BME280;33824;51.600;5.718;2023-02-26T06:57:09;102117.06;;;-0.87;79.02
48053;BME280;33824;51.600;5.718;2023-02-26T06:59:35;102122.19;;;-0.84;79.20
48053;BME280;33824;51.600;5.718;2023-02-26T07:02:00;102127.09;;;-0.77;79.36
48053;BME280;33824;51.600;5.718;2023-02-26T07:04:26;102131.13;;;-0.70;79.23
48053;BME280;33824;51.600;5.718;2023-02-26T07:06:51;102135.84;;;-0.59;79.38
48053;BME280;33824;51.600;5.718;2023-02-26T07:09:17;102140.59;;;-0.49;79.06
48053;BME280;33824;51.600;5.718;2023-02-26T07:11:44;102146.09;;;-0.36;78.88
48053;BME280;33824;51.600;5.718;2023-02-26T07:14:09;102138.09;;;-0.33;78.63
48053;BME280;33824;51.600;5.718;2023-02-26T07:16:35;102157.56;;;-0.20;78.19
48053;BME280;33824;51.600;5.718;2023-02-26T07:19:00;102151.00;;;-0.11;78.16
48053;BME280;33824;51.600;5.718;2023-02-26T07:21:26;102157.44;;;0.00;77.54
48053;BME280;33824;51.600;5.718;2023-02-26T07:23:52;102161.13;;;0.15;77.55
48053;BME280;33824;51.600;5.718;2023-02-26T07:26:17;102168.34;;;0.27;77.21
48053;BME280;33824;51.600;5.718;2023-02-26T07:28:43;102172.47;;;0.33;76.64
48053;BME280;33824;51.600;5.718;2023-02-26T07:31:09;102178.19;;;0.41;76.14
48053;BME280;33824;51.600;5.718;2023-02-26T07:33:34;102181.00;;;0.54;76.40
48053;BME280;33824;51.600;5.718;2023-02-26T07:36:00;102183.41;;;0.58;75.95
48053;BME280;33824;51.600;5.718;2023-02-26T07:38:26;102195.28;;;0.65;75.47
48053;BME280;33824;51.600;5.718;2023-02-26T07:40:55;102193.53;;;0.66;74.83
48053;BME280;33824;51.600;5.718;2023-02-26T07:43:21;102192.69;;;0.82;75.41
48053;BME280;33824;51.600;5.718;2023-02-26T07:45:51;102201.31;;;0.84;74.39
48053;BME280;33824;51.600;5.718;2023-02-26T07:48:16;102198.22;;;0.93;74.54
48053;BME280;33824;51.600;5.718;2023-02-26T07:50:42;102206.56;;;1.02;74.10
48053;BME280;33824;51.600;5.718;2023-02-26T07:53:09;102205.78;;;1.00;73.94
48053;BME280;33824;51.600;5.718;2023-02-26T07:55:34;102207.06;;;1.08;74.20
48053;BME280;33824;51.600;5.718;2023-02-26T07:58:00;102197.81;;;1.01;74.25
48053;BME280;33824;51.600;5.718;2023-02-26T08:00:25;102213.81;;;1.14;74.00
48053;BME280;33824;51.600;5.718;2023-02-26T08:02:51;102217.69;;;1.22;74.19
48053;BME280;33824;51.600;5.718;2023-02-26T08:05:16;102221.19;;;1.23;73.60
48053;BME280;33824;51.600;5.718;2023-02-26T08:07:42;102218.50;;;1.24;74.01
48053;BME280;33824;51.600;5.718;2023-02-26T08:10:08;102212.22;;;1.27;73.60
48053;BME280;33824;51.600;5.718;2023-02-26T08:12:34;102211.28;;;1.28;73.45
48053;BME280;33824;51.600;5.718;2023-02-26T08:15:01;102217.00;;;1.36;73.44
48053;BME280;33824;51.600;5.718;2023-02-26T08:17:27;102214.72;;;1.45;73.62
48053;BME280;33824;51.600;5.718;2023-02-26T08:19:52;102215.50;;;1.48;73.46
48053;BME280;33824;51.600;5.718;2023-02-26T08:22:19;102207.38;;;1.52;73.54
48053;BME280;33824;51.600;5.718;2023-02-26T08:24:44;102226.59;;;1.53;73.12
48053;BME280;33824;51.600;5.718;2023-02-26T08:27:10;102225.94;;;1.65;72.79
48053;BME280;33824;51.600;5.718;2023-02-26T08:29:35;102229.66;;;1.76;72.98
48053;BME280;33824;51.600;5.718;2023-02-26T08:32:01;102228.97;;;1.57;71.99
48053;BME280;33824;51.600;5.718;2023-02-26T08:34:27;102238.50;;;1.60;72.16
48053;BME280;33824;51.600;5.718;2023-02-26T08:36:52;102243.91;;;1.72;72.89
48053;BME280;33824;51.600;5.718;2023-02-26T08:39:19;102249.53;;;1.66;72.10
48053;BME280;33824;51.600;5.718;2023-02-26T08:41:45;102250.19;;;1.54;71.92
48053;BME280;33824;51.600;5.718;2023-02-26T08:44:10;102254.78;;;1.66;72.21
48053;BME280;33824;51.600;5.718;2023-02-26T08:46:36;102253.44;;;1.75;72.49
48053;BME280;33824;51.600;5.718;2023-02-26T08:49:02;102259.78;;;1.71;71.61
48053;BME280;33824;51.600;5.718;2023-02-26T08:51:27;102265.41;;;1.80;72.20
48053;BME280;33824;51.600;5.718;2023-02-26T08:53:53;102267.16;;;1.80;71.68
48053;BME280;33824;51.600;5.718;2023-02-26T08:56:18;102270.22;;;1.88;71.95
48053;BME280;33824;51.600;5.718;2023-02-26T08:58:44;102276.59;;;1.84;71.12
48053;BME280;33824;51.600;5.718;2023-02-26T09:01:09;102277.63;;;1.81;70.35
48053;BME280;33824;51.600;5.718;2023-02-26T09:03:35;102281.03;;;2.15;72.12
48053;BME280;33824;51.600;5.718;2023-02-26T09:06:01;102295.72;;;2.19;70.72
48053;BME280;33824;51.600;5.718;2023-02-26T09:08:27;102286.66;;;2.24;70.60
48053;BME280;33824;51.600;5.718;2023-02-26T09:10:58;102300.72;;;2.23;70.27
48053;BME280;33824;51.600;5.718;2023-02-26T09:13:24;102293.69;;;2.24;69.31
48053;BME280;33824;51.600;5.718;2023-02-26T09:15:50;102294.59;;;2.23;68.98
48053;BME280;33824;51.600;5.718;2023-02-26T09:18:15;102294.53;;;2.24;69.14
48053;BME280;33824;51.600;5.718;2023-02-26T09:20:42;102296.13;;;2.42;69.74
48053;BME280;33824;51.600;5.718;2023-02-26T09:23:08;102312.25;;;2.52;69.16
48053;BME280;33824;51.600;5.718;2023-02-26T09:25:34;102306.72;;;2.57;68.82
48053;BME280;33824;51.600;5.718;2023-02-26T09:28:00;102307.75;;;2.70;69.23
48053;BME280;33824;51.600;5.718;2023-02-26T09:30:25;102308.91;;;2.80;68.69
48053;BME280;33824;51.600;5.718;2023-02-26T09:32:52;102313.31;;;2.79;68.38
48053;BME280;33824;51.600;5.718;2023-02-26T09:35:17;102323.25;;;2.74;68.01
48053;BME280;33824;51.600;5.718;2023-02-26T09:37:43;102305.81;;;2.87;68.21
48053;BME280;33824;51.600;5.718;2023-02-26T09:40:24;102317.41;;;2.69;66.20
48053;BME280;33824;51.600;5.718;2023-02-26T09:43:14;102334.56;;;2.76;67.04
48053;BME280;33824;51.600;5.718;2023-02-26T09:45:46;102342.34;;;2.78;67.51
48053;BME280;33824;51.600;5.718;2023-02-26T09:48:16;102335.38;;;2.93;67.20
48053;BME280;33824;51.600;5.718;2023-02-26T09:50:47;102344.06;;;2.79;65.08
48053;BME280;33824;51.600;5.718;2023-02-26T09:53:26;102345.81;;;2.94;67.26
48053;BME280;33824;51.600;5.718;2023-02-26T09:55:59;102332.75;;;2.93;66.00
48053;BME280;33824;51.600;5.718;2023-02-26T09:58:29;102353.84;;;2.93;65.40
48053;BME280;33824;51.600;5.718;2023-02-26T10:01:28;102354.41;;;2.98;64.77
48053;BME280;33824;51.600;5.718;2023-02-26T10:12:16;102364.97;;;2.82;64.90
48053;BME280;33824;51.600;5.718;2023-02-26T10:14:50;102375.63;;;2.65;64.76
48053;BME280;33824;51.600;5.718;2023-02-26T10:25:21;102365.41;;;2.74;63.32
48053;BME280;33824;51.600;5.718;2023-02-26T10:28:05;102373.22;;;2.60;61.49
48053;BME280;33824;51.600;5.718;2023-02-26T10:30:38;102380.63;;;2.69;64.24
48053;BME280;33824;51.600;5.718;2023-02-26T10:36:03;102379.09;;;2.65;62.58
48053;BME280;33824;51.600;5.718;2023-02-26T10:38:32;102372.13;;;2.80;63.47
48053;BME280;33824;51.600;5.718;2023-02-26T10:41:04;102377.41;;;3.10;62.77
48053;BME280;33824;51.600;5.718;2023-02-26T10:43:40;102369.88;;;3.33;62.84
48053;BME280;33824;51.600;5.718;2023-02-26T10:46:54;102368.56;;;3.41;60.85
48053;BME280;33824;51.600;5.718;2023-02-26T10:51:45;102372.94;;;3.70;61.51
48053;BME280;33824;51.600;5.718;2023-02-26T10:57:22;102369.16;;;3.74;55.50
48053;BME280;33824;51.600;5.718;2023-02-26T10:59:48;102384.16;;;3.73;55.58
48053;BME280;33824;51.600;5.718;2023-02-26T11:02:38;102387.28;;;3.94;53.70
48053;BME280;33824;51.600;5.718;2023-02-26T11:05:08;102378.72;;;3.91;54.52
48053;BME280;33824;51.600;5.718;2023-02-26T11:07:38;102387.28;;;3.80;55.17
48053;BME280;33824;51.600;5.718;2023-02-26T11:10:12;102357.94;;;3.84;53.72
48053;BME280;33824;51.600;5.718;2023-02-26T11:12:39;102380.88;;;4.12;54.02
48053;BME280;33824;51.600;5.718;2023-02-26T11:15:05;102382.38;;;4.16;52.80
48053;BME280;33824;51.600;5.718;2023-02-26T11:17:31;102379.47;;;4.07;53.74
48053;BME280;33824;51.600;5.718;2023-02-26T11:22:47;102376.53;;;3.97;52.45
48053;BME280;33824;51.600;5.718;2023-02-26T11:25:16;102383.47;;;4.26;52.27
48053;BME280;33824;51.600;5.718;2023-02-26T11:27:43;102381.88;;;4.38;52.49
48053;BME280;33824;51.600;5.718;2023-02-26T11:30:21;102383.69;;;4.23;52.08
48053;BME280;33824;51.600;5.718;2023-02-26T11:32:52;102379.09;;;4.54;52.98
48053;BME280;33824;51.600;5.718;2023-02-26T11:35:20;102373.41;;;4.33;52.18
48053;BME280;33824;51.600;5.718;2023-02-26T11:37:51;102388.16;;;4.50;54.38
48053;BME280;33824;51.600;5.718;2023-02-26T11:40:25;102369.59;;;4.51;50.34
48053;BME280;33824;51.600;5.718;2023-02-26T11:42:58;102367.25;;;4.47;51.04
48053;BME280;33824;51.600;5.718;2023-02-26T11:45:25;102377.09;;;4.71;50.12
48053;BME280;33824;51.600;5.718;2023-02-26T11:48:21;102384.41;;;4.80;50.06
48053;BME280;33824;51.600;5.718;2023-02-26T11:50:51;102368.31;;;4.98;52.87
48053;BME280;33824;51.600;5.718;2023-02-26T11:53:33;102356.91;;;5.10;50.83
48053;BME280;33824;51.600;5.718;2023-02-26T11:56:08;102377.91;;;4.72;50.55
48053;BME280;33824;51.600;5.718;2023-02-26T11:58:37;102370.00;;;4.99;50.03
48053;BME280;33824;51.600;5.718;2023-02-26T12:01:06;102367.84;;;4.91;49.97
48053;BME280;33824;51.600;5.718;2023-02-26T12:03:35;102357.41;;;4.63;48.16
48053;BME280;33824;51.600;5.718;2023-02-26T12:06:04;102366.88;;;4.39;49.20
48053;BME280;33824;51.600;5.718;2023-02-26T12:08:35;102384.50;;;4.52;47.80
48053;BME280;33824;51.600;5.718;2023-02-26T12:11:44;102360.78;;;4.65;47.69
48053;BME280;33824;51.600;5.718;2023-02-26T12:17:26;102356.34;;;4.24;48.32
48053;BME280;33824;51.600;5.718;2023-02-26T12:22:48;102355.28;;;4.27;48.21
48053;BME280;33824;51.600;5.718;2023-02-26T12:25:58;102369.66;;;4.64;46.97
48053;BME280;33824;51.600;5.718;2023-02-26T12:28:47;102363.19;;;4.82;48.44
48053;BME280;33824;51.600;5.718;2023-02-26T12:42:39;102362.78;;;5.27;49.79
48053;BME280;33824;51.600;5.718;2023-02-26T12:45:25;102361.00;;;5.28;49.34
48053;BME280;33824;51.600;5.718;2023-02-26T12:59:53;102353.94;;;5.54;47.48
48053;BME280;33824;51.600;5.718;2023-02-26T13:08:19;102361.25;;;6.01;48.28
48053;BME280;33824;51.600;5.718;2023-02-26T13:16:38;102345.56;;;5.72;45.93
48053;BME280;33824;51.600;5.718;2023-02-26T13:21:59;102362.56;;;5.30;48.14
48053;BME280;33824;51.600;5.718;2023-02-26T13:24:43;102356.88;;;5.49;47.96
48053;BME280;33824;51.600;5.718;2023-02-26T13:27:12;102355.50;;;5.56;48.04
48053;BME280;33824;51.600;5.718;2023-02-26T13:29:54;102354.78;;;5.54;47.48
48053;BME280;33824;51.600;5.718;2023-02-26T13:32:23;102376.66;;;5.56;47.82
48053;BME280;33824;51.600;5.718;2023-02-26T13:35:00;102355.28;;;5.59;46.25
48053;BME280;33824;51.600;5.718;2023-02-26T13:37:39;102356.16;;;5.85;46.29
48053;BME280;33824;51.600;5.718;2023-02-26T13:43:23;102352.75;;;5.83;44.60
48053;BME280;33824;51.600;5.718;2023-02-26T13:48:57;102343.16;;;5.82;45.36
48053;BME280;33824;51.600;5.718;2023-02-26T13:51:33;102330.22;;;5.90;46.24
48053;BME280;33824;51.600;5.718;2023-02-26T13:54:17;102346.84;;;5.54;46.41
48053;BME280;33824;51.600;5.718;2023-02-26T14:00:06;102344.31;;;5.78;46.51
48053;BME280;33824;51.600;5.718;2023-02-26T14:02:46;102346.94;;;6.03;47.19
48053;BME280;33824;51.600;5.718;2023-02-26T14:10:43;102344.31;;;5.65;46.93
48053;BME280;33824;51.600;5.718;2023-02-26T14:13:21;102335.00;;;5.47;47.60
48053;BME280;33824;51.600;5.718;2023-02-26T14:15:52;102346.72;;;5.68;47.66
48053;BME280;33824;51.600;5.718;2023-02-26T14:18:49;102355.22;;;5.86;47.93
48053;BME280;33824;51.600;5.718;2023-02-26T14:21:35;102351.72;;;5.73;47.23
48053;BME280;33824;51.600;5.718;2023-02-26T14:24:12;102354.59;;;5.95;48.23
48053;BME280;33824;51.600;5.718;2023-02-26T14:26:43;102350.13;;;5.96;48.73
48053;BME280;33824;51.600;5.718;2023-02-26T14:29:25;102354.06;;;5.90;48.63
48053;BME280;33824;51.600;5.718;2023-02-26T14:34:24;102360.19;;;6.03;47.99
48053;BME280;33824;51.600;5.718;2023-02-26T14:36:57;102352.94;;;6.31;47.43
48053;BME280;33824;51.600;5.718;2023-02-26T14:39:37;102361.50;;;6.34;47.28
48053;BME280;33824;51.600;5.718;2023-02-26T14:42:07;102362.75;;;6.41;47.32
48053;BME280;33824;51.600;5.718;2023-02-26T14:44:42;102362.66;;;6.43;47.24
48053;BME280;33824;51.600;5.718;2023-02-26T14:47:09;102368.53;;;6.10;47.40
48053;BME280;33824;51.600;5.718;2023-02-26T14:49:39;102350.47;;;5.91;46.36
48053;BME280;33824;51.600;5.718;2023-02-26T14:57:54;102372.66;;;5.63;47.35
48053;BME280;33824;51.600;5.718;2023-02-26T15:00:46;102361.34;;;5.74;47.74
48053;BME280;33824;51.600;5.718;2023-02-26T15:03:31;102364.94;;;5.86;47.61
48053;BME280;33824;51.600;5.718;2023-02-26T15:14:34;102359.66;;;5.73;49.60
48053;BME280;33824;51.600;5.718;2023-02-26T15:17:15;102368.44;;;5.61;49.48
48053;BME280;33824;51.600;5.718;2023-02-26T15:20:17;102367.16;;;5.54;49.12
48053;BME280;33824;51.600;5.718;2023-02-26T15:25:35;102361.97;;;5.65;49.30
48053;BME280;33824;51.600;5.718;2023-02-26T15:28:04;102372.66;;;5.63;49.47
48053;BME280;33824;51.600;5.718;2023-02-26T15:30:33;102366.31;;;5.53;50.17
48053;BME280;33824;51.600;5.718;2023-02-26T15:33:01;102374.56;;;5.61;49.95
48053;BME280;33824;51.600;5.718;2023-02-26T15:35:29;102363.44;;;5.56;50.11